createdAt,value
2023-02-19T00:01:16.056Z,91.20
2023-02-19T00:03:47.957Z,91.30
2023-02-19T00:06:14.857Z,91.30
2023-02-19T00:08:41.707Z,91.30
2023-02-19T00:11:12.755Z,91.40
2023-02-19T00:13:41.144Z,91.40
2023-02-19T00:16:21.621Z,91.40
2023-02-19T00:18:48.587Z,91.50
2023-02-19T00:21:15.791Z,91.50
2023-02-19T00:23:42.842Z,91.50
2023-02-19T00:26:18.267Z,91.50
2023-02-19T00:28:47.830Z,91.60
2023-02-19T00:31:29.482Z,91.60
2023-02-19T00:33:59.230Z,91.70
2023-02-19T00:36:26.773Z,91.70
2023-02-19T00:38:53.851Z,91.70
2023-02-19T00:41:21.887Z,91.70
2023-02-19T00:43:55.598Z,91.70
2023-02-19T00:46:26.558Z,91.60
2023-02-19T00:48:53.642Z,91.60
2023-02-19T00:51:21.647Z,91.50
2023-02-19T00:53:48.580Z,91.40
2023-02-19T00:56:15.681Z,91.40
2023-02-19T00:58:42.602Z,91.40
2023-02-19T01:01:09.916Z,91.40
2023-02-19T01:03:37.259Z,91.50
2023-02-19T01:06:04.637Z,91.60
2023-02-19T01:08:32.158Z,91.50
2023-02-19T01:11:01.126Z,91.50
2023-02-19T01:13:28.507Z,91.50
2023-02-19T01:16:16.139Z,91.70
2023-02-19T01:18:43.313Z,91.50
2023-02-19T01:21:13.471Z,91.80
2023-02-19T01:23:40.699Z,91.60
2023-02-19T01:26:08.679Z,91.70
2023-02-19T01:28:35.826Z,91.70
2023-02-19T01:31:07.123Z,91.80
2023-02-19T01:33:34.618Z,91.90
2023-02-19T01:36:05.761Z,91.80
2023-02-19T01:38:32.816Z,91.80
2023-02-19T01:41:01.826Z,91.70
2023-02-19T01:43:28.910Z,91.70
2023-02-19T01:45:55.782Z,91.70
2023-02-19T01:48:29.328Z,92.00
2023-02-19T01:51:03.815Z,91.70
2023-02-19T01:53:32.037Z,91.70
2023-02-19T01:55:58.936Z,91.60
2023-02-19T01:58:26.565Z,91.60
2023-02-19T02:00:53.542Z,91.60
2023-02-19T02:03:20.413Z,91.60
2023-02-19T02:06:10.686Z,91.70
2023-02-19T02:08:56.162Z,91.70
2023-02-19T02:11:23.428Z,91.70
2023-02-19T02:13:50.404Z,91.80
2023-02-19T02:16:29.487Z,91.80
2023-02-19T02:19:04.036Z,91.90
2023-02-19T02:21:40.494Z,91.90
2023-02-19T02:24:29.036Z,91.90
2023-02-19T02:27:04.688Z,92.00
2023-02-19T02:29:50.746Z,92.00
2023-02-19T02:32:21.677Z,92.10
2023-02-19T02:34:51.425Z,92.30
2023-02-19T02:37:18.298Z,92.10
2023-02-19T02:39:45.999Z,92.10
2023-02-19T02:42:27.758Z,92.10
2023-02-19T02:45:37.908Z,92.20
2023-02-19T02:48:35.586Z,92.20
2023-02-19T02:51:20.834Z,92.20
2023-02-19T02:54:16.341Z,92.20
2023-02-19T02:56:44.432Z,92.20
2023-02-19T02:59:12.528Z,92.20
2023-02-19T03:02:14.374Z,92.50
2023-02-19T03:05:13.481Z,92.30
2023-02-19T03:07:48.288Z,92.30
2023-02-19T03:10:41.407Z,92.20
2023-02-19T03:13:32.561Z,92.30
2023-02-19T03:16:21.173Z,92.30
2023-02-19T03:19:08.503Z,92.30
2023-02-19T03:21:36.288Z,92.30
2023-02-19T03:24:25.793Z,92.30
2023-02-19T03:26:54.139Z,92.20
2023-02-19T03:29:24.190Z,92.40
2023-02-19T03:31:58.000Z,92.20
2023-02-19T03:34:36.654Z,92.20
2023-02-19T03:37:11.662Z,92.10
2023-02-19T03:39:44.504Z,92.10
2023-02-19T03:42:16.416Z,92.00
2023-02-19T03:45:04.470Z,91.90
2023-02-19T03:47:35.821Z,92.00
2023-02-19T03:50:07.950Z,91.80
2023-02-19T03:52:39.580Z,91.80
2023-02-19T03:55:07.505Z,91.80
2023-02-19T03:57:53.658Z,91.80
2023-02-19T04:00:27.443Z,91.80
2023-02-19T04:02:56.777Z,91.80
2023-02-19T04:05:26.280Z,91.90
2023-02-19T04:07:55.174Z,91.90
2023-02-19T04:10:27.717Z,91.90
2023-02-19T04:12:57.817Z,91.90
2023-02-19T04:15:27.757Z,92.20
2023-02-19T04:17:56.573Z,92.00
2023-02-19T04:20:24.138Z,92.00
2023-02-19T04:22:51.216Z,92.00
2023-02-19T04:25:18.103Z,92.00
2023-02-19T04:27:45.464Z,92.00
2023-02-19T04:30:13.288Z,92.00
2023-02-19T04:32:40.116Z,92.00
2023-02-19T04:35:07.069Z,91.90
2023-02-19T04:37:33.852Z,91.90
2023-02-19T04:40:00.685Z,91.80
2023-02-19T04:42:27.528Z,91.80
2023-02-19T04:44:54.340Z,91.70
2023-02-19T04:47:21.216Z,91.90
2023-02-19T04:49:48.051Z,91.60
2023-02-19T04:52:14.922Z,91.50
2023-02-19T04:54:41.772Z,91.50
2023-02-19T04:57:08.541Z,91.40
2023-02-19T04:59:35.431Z,91.30
2023-02-19T05:02:02.270Z,91.30
2023-02-19T05:04:29.195Z,91.20
2023-02-19T05:06:56.505Z,91.20
2023-02-19T05:09:23.544Z,91.30
2023-02-19T05:11:50.371Z,91.00
2023-02-19T05:14:17.262Z,90.90
2023-02-19T05:16:44.091Z,90.80
2023-02-19T05:19:14.051Z,90.70
2023-02-19T05:21:41.057Z,90.60
2023-02-19T05:24:08.147Z,90.60
2023-02-19T05:26:35.110Z,90.50
2023-02-19T05:29:02.056Z,90.50
2023-02-19T05:31:28.961Z,90.50
2023-02-19T05:33:56.377Z,90.60
2023-02-19T05:36:23.297Z,90.40
2023-02-19T05:38:56.546Z,90.40
2023-02-19T05:41:24.789Z,90.50
2023-02-19T05:43:51.845Z,90.50
2023-02-19T05:46:20.592Z,90.50
2023-02-19T05:48:48.246Z,90.50
2023-02-19T05:51:16.568Z,90.50
2023-02-19T05:53:44.852Z,90.60
2023-02-19T05:56:35.638Z,90.30
2023-02-19T05:59:23.734Z,90.30
2023-02-19T06:01:51.362Z,90.20
2023-02-19T06:04:19.961Z,90.20
2023-02-19T06:06:47.273Z,90.20
2023-02-19T06:09:14.214Z,90.20
2023-02-19T06:11:41.151Z,90.20
2023-02-19T06:14:08.046Z,90.20
2023-02-19T06:16:34.884Z,90.20
2023-02-19T06:19:05.114Z,90.20
2023-02-19T06:21:32.028Z,90.30
2023-02-19T06:23:58.866Z,90.30
2023-02-19T06:26:25.656Z,90.40
2023-02-19T06:28:52.870Z,90.40
2023-02-19T06:31:20.524Z,90.40
2023-02-19T06:33:47.646Z,90.50
2023-02-19T06:36:16.151Z,90.50
2023-02-19T06:38:43.238Z,90.50
2023-02-19T06:41:10.571Z,90.50
2023-02-19T06:43:37.649Z,90.50
2023-02-19T06:46:05.544Z,90.60
2023-02-19T06:48:32.963Z,90.60
2023-02-19T06:50:59.914Z,90.60
2023-02-19T06:53:26.749Z,90.60
2023-02-19T06:56:00.881Z,90.70
2023-02-19T06:58:27.830Z,90.70
2023-02-19T07:00:54.724Z,90.70
2023-02-19T07:03:21.760Z,90.90
2023-02-19T07:05:48.735Z,90.70
2023-02-19T07:08:17.332Z,90.70
2023-02-19T07:10:53.733Z,90.70
2023-02-19T07:13:20.567Z,90.70
2023-02-19T07:15:47.404Z,90.70
2023-02-19T07:18:14.285Z,90.80
2023-02-19T07:20:41.130Z,90.80
2023-02-19T07:23:07.930Z,90.80
2023-02-19T07:25:34.897Z,90.80
2023-02-19T07:28:02.791Z,91.00
2023-02-19T07:30:29.703Z,90.80
2023-02-19T07:32:56.524Z,90.80
2023-02-19T07:35:23.468Z,90.70
2023-02-19T07:37:50.401Z,90.70
2023-02-19T07:40:17.349Z,90.70
2023-02-19T07:42:44.169Z,90.70
2023-02-19T07:45:11.071Z,90.70
2023-02-19T07:47:38.031Z,90.60
2023-02-19T07:50:05.152Z,90.60
2023-02-19T07:52:33.341Z,90.60
2023-02-19T07:55:00.222Z,90.50
2023-02-19T07:57:28.974Z,90.50
2023-02-19T07:59:55.830Z,90.50
2023-02-19T08:02:41.093Z,90.40
2023-02-19T08:05:08.362Z,90.40
2023-02-19T08:07:35.461Z,90.40
2023-02-19T08:10:20.869Z,90.40
2023-02-19T08:13:19.188Z,90.40
2023-02-19T08:15:49.652Z,90.40
2023-02-19T08:18:17.410Z,90.30
2023-02-19T08:20:44.333Z,90.30
2023-02-19T08:23:11.643Z,90.50
2023-02-19T08:25:39.016Z,90.30
2023-02-19T08:28:06.053Z,90.20
2023-02-19T08:30:33.120Z,90.20
2023-02-19T08:33:02.166Z,90.20
2023-02-19T08:35:29.265Z,90.20
2023-02-19T08:37:57.279Z,90.10
2023-02-19T08:40:24.689Z,90.10
2023-02-19T08:42:51.542Z,90.40
2023-02-19T08:45:18.398Z,90.10
2023-02-19T08:47:45.352Z,90.20
2023-02-19T08:50:12.388Z,90.20
2023-02-19T08:52:39.238Z,90.20
2023-02-19T08:55:06.395Z,90.20
2023-02-19T08:57:37.483Z,90.10
2023-02-19T09:00:05.418Z,90.00
2023-02-19T09:02:32.260Z,90.00
2023-02-19T09:04:59.167Z,89.90
2023-02-19T09:07:26.010Z,89.70
2023-02-19T09:09:53.085Z,89.70
2023-02-19T09:12:19.997Z,89.60
2023-02-19T09:14:46.971Z,89.60
2023-02-19T09:17:13.893Z,89.40
2023-02-19T09:19:40.698Z,89.80
2023-02-19T09:22:07.526Z,89.10
2023-02-19T09:24:34.401Z,89.10
2023-02-19T09:27:01.238Z,89.00
2023-02-19T09:29:28.440Z,88.70
2023-02-19T09:31:59.088Z,88.30
2023-02-19T09:34:27.104Z,88.00
2023-02-19T09:36:54.203Z,87.70
2023-02-19T09:39:21.277Z,87.30
2023-02-19T09:41:52.874Z,86.90
2023-02-19T09:44:40.426Z,86.50
2023-02-19T09:47:18.187Z,85.80
2023-02-19T09:49:50.234Z,85.50
2023-02-19T09:52:26.942Z,85.20
2023-02-19T09:54:57.652Z,84.60
2023-02-19T09:57:25.770Z,84.30
2023-02-19T09:59:55.193Z,83.90
2023-02-19T10:02:23.574Z,83.50
2023-02-19T10:04:53.582Z,83.00
2023-02-19T10:07:43.937Z,82.50
2023-02-19T10:10:13.804Z,81.70
2023-02-19T10:12:43.489Z,81.50
2023-02-19T10:15:25.816Z,81.10
2023-02-19T10:17:52.741Z,80.30
2023-02-19T10:20:24.620Z,80.10
2023-02-19T10:22:57.334Z,79.60
2023-02-19T10:25:24.168Z,79.00
2023-02-19T10:27:50.966Z,78.90
2023-02-19T10:30:24.142Z,78.20
2023-02-19T10:33:13.617Z,76.90
2023-02-19T10:36:04.050Z,76.80
2023-02-19T10:38:39.350Z,77.00
2023-02-19T10:41:07.987Z,77.20
2023-02-19T10:43:40.769Z,77.60
2023-02-19T10:46:24.600Z,77.00
2023-02-19T10:49:31.331Z,77.20
2023-02-19T10:52:03.190Z,76.60
2023-02-19T10:54:34.844Z,76.10
2023-02-19T10:57:21.336Z,75.50
2023-02-19T10:59:59.344Z,74.40
2023-02-19T11:02:26.416Z,73.80
2023-02-19T11:05:23.303Z,73.60
2023-02-19T11:07:56.803Z,73.00
2023-02-19T11:10:46.882Z,72.60
2023-02-19T11:13:15.570Z,72.20
2023-02-19T11:15:42.410Z,71.90
2023-02-19T11:18:12.273Z,71.60
2023-02-19T11:20:49.824Z,71.20
2023-02-19T11:23:19.536Z,70.80
2023-02-19T11:25:47.155Z,70.90
2023-02-19T11:28:17.868Z,70.70
2023-02-19T11:30:54.715Z,70.50
2023-02-19T11:33:27.683Z,70.60
2023-02-19T11:36:23.544Z,70.30
2023-02-19T11:38:50.348Z,69.70
2023-02-19T11:41:26.109Z,69.80
2023-02-19T11:43:59.756Z,69.30
2023-02-19T11:46:32.976Z,68.80
2023-02-19T11:49:21.505Z,68.30
2023-02-19T11:52:00.638Z,68.10
2023-02-19T11:54:39.221Z,67.80
2023-02-19T11:57:28.201Z,66.90
2023-02-19T12:00:27.966Z,66.30
2023-02-19T12:03:06.727Z,65.30
2023-02-19T12:05:45.366Z,64.20
2023-02-19T12:08:34.576Z,63.30
2023-02-19T12:11:22.903Z,62.70
2023-02-19T12:14:18.738Z,62.40
2023-02-19T12:16:55.222Z,61.80
2023-02-19T12:19:50.953Z,61.20
2023-02-19T12:22:35.587Z,60.50
2023-02-19T12:25:25.289Z,60.30
2023-02-19T12:28:29.911Z,60.10
2023-02-19T12:31:27.807Z,59.90
2023-02-19T12:34:00.779Z,59.80
2023-02-19T12:36:46.665Z,60.10
2023-02-19T12:39:13.483Z,60.00
2023-02-19T12:41:50.214Z,59.70
2023-02-19T12:44:37.739Z,58.80
2023-02-19T12:47:06.510Z,58.30
2023-02-19T12:49:37.351Z,58.10
2023-02-19T12:52:08.244Z,57.50
2023-02-19T12:54:35.819Z,56.70
2023-02-19T12:57:03.447Z,56.40
2023-02-19T12:59:35.153Z,55.90
2023-02-19T13:02:17.094Z,55.20
2023-02-19T13:04:48.317Z,55.30
2023-02-19T13:07:19.356Z,55.70
2023-02-19T13:09:56.374Z,55.50
2023-02-19T13:12:26.039Z,55.70
2023-02-19T13:14:59.045Z,56.10
2023-02-19T13:17:34.523Z,56.10
2023-02-19T13:20:29.350Z,56.40
2023-02-19T13:23:41.365Z,56.40
2023-02-19T13:26:23.126Z,56.90
2023-02-19T13:28:53.891Z,57.20
2023-02-19T13:31:39.817Z,57.40
2023-02-19T13:34:20.615Z,57.20
2023-02-19T13:36:48.783Z,57.50
2023-02-19T13:41:51.830Z,57.90
2023-02-19T13:44:29.184Z,58.50
2023-02-19T13:46:56.063Z,57.60
2023-02-19T13:49:28.902Z,57.20
2023-02-19T13:52:01.706Z,56.60
2023-02-19T13:54:29.946Z,56.30
2023-02-19T13:57:22.273Z,56.50
2023-02-19T13:59:49.846Z,56.30
2023-02-19T14:02:23.084Z,56.10
2023-02-19T14:05:00.029Z,55.60
2023-02-19T14:07:26.865Z,55.20
2023-02-19T14:09:54.075Z,55.00
2023-02-19T14:12:21.919Z,55.00
2023-02-19T14:14:50.297Z,55.60
2023-02-19T14:17:33.190Z,55.10
2023-02-19T14:20:42.440Z,55.00
2023-02-19T14:23:18.134Z,55.40
2023-02-19T14:25:52.807Z,55.80
2023-02-19T14:28:38.073Z,55.90
2023-02-19T14:31:33.250Z,56.00
2023-02-19T14:34:13.464Z,56.20
2023-02-19T14:36:52.656Z,55.20
2023-02-19T14:39:32.821Z,54.30
2023-02-19T14:42:01.150Z,54.20
2023-02-19T14:44:37.368Z,54.00
2023-02-19T14:47:13.705Z,53.90
2023-02-19T14:50:00.945Z,52.50
2023-02-19T14:52:41.031Z,51.80
2023-02-19T14:55:17.060Z,51.50
2023-02-19T14:57:48.117Z,51.40
2023-02-19T15:00:29.087Z,51.00
2023-02-19T15:02:57.563Z,50.50
2023-02-19T15:05:36.675Z,50.90
2023-02-19T15:08:07.549Z,49.90
2023-02-19T15:10:34.675Z,50.00
2023-02-19T15:13:05.960Z,49.90
2023-02-19T15:15:42.710Z,49.90
2023-02-19T15:18:18.121Z,49.50
2023-02-19T15:20:45.135Z,49.60
2023-02-19T15:23:12.427Z,49.60
2023-02-19T15:25:39.485Z,49.20
2023-02-19T15:28:41.910Z,49.40
2023-02-19T15:31:14.198Z,49.30
2023-02-19T15:33:49.351Z,48.90
2023-02-19T15:36:16.636Z,48.10
2023-02-19T15:38:44.440Z,48.00
2023-02-19T15:41:21.393Z,47.70
2023-02-19T15:43:53.896Z,47.70
2023-02-19T15:46:24.925Z,47.50
2023-02-19T15:49:01.127Z,47.80
2023-02-19T15:51:41.484Z,46.90
2023-02-19T15:54:27.230Z,46.70
2023-02-19T15:56:54.471Z,47.80
2023-02-19T15:59:34.170Z,48.20
2023-02-19T16:02:01.684Z,48.50
2023-02-19T16:04:28.622Z,48.40
2023-02-19T16:07:00.501Z,49.30
2023-02-19T16:09:38.059Z,48.80
2023-02-19T16:12:22.474Z,49.70
2023-02-19T16:14:51.006Z,51.00
2023-02-19T16:17:23.152Z,52.30
2023-02-19T16:19:57.422Z,53.10
2023-02-19T16:22:25.785Z,53.80
2023-02-19T16:24:54.336Z,54.70
2023-02-19T16:27:34.817Z,55.20
2023-02-19T16:30:16.284Z,55.70
2023-02-19T16:32:45.280Z,56.30
2023-02-19T16:35:39.756Z,56.80
2023-02-19T16:38:13.896Z,57.10
2023-02-19T16:40:53.189Z,57.60
2023-02-19T16:43:31.003Z,57.90
2023-02-19T16:45:58.515Z,58.30
2023-02-19T16:48:25.479Z,58.50
2023-02-19T16:50:52.311Z,58.80
2023-02-19T16:53:24.914Z,59.20
2023-02-19T16:55:52.443Z,59.60
2023-02-19T16:58:19.412Z,59.90
2023-02-19T17:00:46.269Z,60.20
2023-02-19T17:03:19.959Z,60.40
2023-02-19T17:05:47.024Z,60.80
2023-02-19T17:08:34.416Z,61.10
2023-02-19T17:11:02.453Z,61.50
2023-02-19T17:13:29.799Z,62.40
2023-02-19T17:15:57.089Z,64.20
2023-02-19T17:18:24.093Z,66.00
2023-02-19T17:21:01.745Z,67.10
2023-02-19T17:23:28.619Z,68.10
2023-02-19T17:25:55.658Z,67.60
2023-02-19T17:28:22.476Z,67.00
2023-02-19T17:30:49.336Z,66.60
2023-02-19T17:33:16.221Z,66.30
2023-02-19T17:35:44.859Z,66.40
2023-02-19T17:38:15.398Z,66.30
2023-02-19T17:40:42.299Z,65.90
2023-02-19T17:43:09.085Z,66.50
2023-02-19T17:45:35.937Z,67.00
2023-02-19T17:48:02.944Z,66.60
2023-02-19T17:50:31.335Z,66.90
2023-02-19T17:52:58.264Z,67.10
2023-02-19T17:55:26.044Z,67.10
2023-02-19T17:57:53.042Z,67.60
2023-02-19T18:00:22.979Z,67.60
2023-02-19T18:02:49.943Z,67.60
2023-02-19T18:05:16.944Z,67.60
2023-02-19T18:07:44.205Z,67.70
2023-02-19T18:10:11.225Z,68.20
2023-02-19T18:12:38.388Z,68.40
2023-02-19T18:15:06.725Z,68.10
2023-02-19T18:17:34.171Z,68.10
2023-02-19T18:20:01.188Z,68.30
2023-02-19T18:22:28.149Z,68.30
2023-02-19T18:24:55.272Z,68.20
2023-02-19T18:27:23.555Z,68.20
2023-02-19T18:29:51.961Z,68.40
2023-02-19T18:32:20.028Z,68.80
2023-02-19T18:34:54.476Z,69.10
2023-02-19T18:37:21.718Z,69.50
2023-02-19T18:39:48.543Z,69.70
2023-02-19T18:42:22.798Z,70.00
2023-02-19T18:44:52.731Z,70.30
2023-02-19T18:47:20.456Z,70.70
2023-02-19T18:49:48.317Z,71.10
2023-02-19T18:52:15.911Z,71.40
2023-02-19T18:54:43.329Z,71.80
2023-02-19T18:57:10.318Z,72.10
2023-02-19T18:59:37.498Z,72.50
2023-02-19T19:02:06.403Z,72.80
2023-02-19T19:04:33.581Z,73.10
2023-02-19T19:07:00.666Z,73.30
2023-02-19T19:09:27.536Z,73.60
2023-02-19T19:11:54.526Z,73.90
2023-02-19T19:14:21.438Z,74.10
2023-02-19T19:16:48.322Z,74.30
2023-02-19T19:19:15.762Z,74.40
2023-02-19T19:21:42.774Z,74.40
2023-02-19T19:24:09.789Z,74.50
2023-02-19T19:26:36.759Z,74.60
2023-02-19T19:29:04.467Z,74.60
2023-02-19T19:31:35.393Z,74.80
2023-02-19T19:34:02.600Z,75.10
2023-02-19T19:36:29.795Z,75.20
2023-02-19T19:38:56.629Z,75.30
2023-02-19T19:41:23.500Z,75.20
2023-02-19T19:43:50.310Z,75.00
2023-02-19T19:46:19.259Z,75.00
2023-02-19T19:48:49.785Z,75.10
2023-02-19T19:51:16.834Z,75.80
2023-02-19T19:53:44.618Z,75.40
2023-02-19T19:56:11.483Z,76.10
2023-02-19T19:58:38.442Z,76.30
2023-02-19T20:01:06.067Z,76.00
2023-02-19T20:03:33.815Z,76.20
2023-02-19T20:06:00.659Z,76.50
2023-02-19T20:08:27.563Z,76.90
2023-02-19T20:10:54.540Z,77.30
2023-02-19T20:13:26.412Z,77.50
2023-02-19T20:15:53.395Z,77.40
2023-02-19T20:18:21.528Z,77.90
2023-02-19T20:20:48.430Z,78.00
2023-02-19T20:23:15.483Z,77.80
2023-02-19T20:25:42.346Z,78.00
2023-02-19T20:28:09.209Z,78.50
2023-02-19T20:30:37.204Z,78.70
2023-02-19T20:33:04.617Z,78.90
2023-02-19T20:35:31.847Z,79.00
2023-02-19T20:37:58.795Z,79.30
2023-02-19T20:40:27.828Z,79.60
2023-02-19T20:42:54.726Z,79.80
2023-02-19T20:45:22.033Z,80.50
2023-02-19T20:47:49.582Z,80.10
2023-02-19T20:50:18.244Z,80.30
2023-02-19T20:52:46.086Z,80.50
2023-02-19T20:55:12.916Z,80.70
2023-02-19T20:57:39.937Z,80.80
2023-02-19T21:00:08.256Z,80.90
2023-02-19T21:02:35.218Z,81.10
2023-02-19T21:05:02.678Z,81.30
2023-02-19T21:07:30.526Z,81.50
2023-02-19T21:09:57.395Z,81.70
2023-02-19T21:12:24.239Z,81.90
2023-02-19T21:14:51.132Z,82.00
2023-02-19T21:17:17.991Z,82.30
2023-02-19T21:19:45.354Z,82.40
2023-02-19T21:22:12.625Z,82.60
2023-02-19T21:24:39.513Z,82.80
2023-02-19T21:27:06.362Z,82.80
2023-02-19T21:29:33.170Z,83.00
2023-02-19T21:32:01.242Z,83.20
2023-02-19T21:34:28.979Z,83.30
2023-02-19T21:36:56.562Z,83.40
2023-02-19T21:39:24.696Z,84.10
2023-02-19T21:41:51.638Z,83.70
2023-02-19T21:44:19.136Z,83.90
2023-02-19T21:46:46.110Z,84.10
2023-02-19T21:49:13.261Z,84.20
2023-02-19T21:51:41.387Z,84.30
2023-02-19T21:54:08.924Z,84.50
2023-02-19T21:56:36.476Z,84.70
2023-02-19T21:59:03.865Z,84.80
2023-02-19T22:01:35.213Z,85.00
2023-02-19T22:04:02.267Z,85.10
2023-02-19T22:06:29.812Z,85.80
2023-02-19T22:08:56.901Z,85.90
2023-02-19T22:11:23.758Z,85.50
2023-02-19T22:13:50.882Z,85.60
2023-02-19T22:16:18.254Z,85.80
2023-02-19T22:18:48.829Z,86.00
2023-02-19T22:21:16.098Z,86.20
2023-02-19T22:23:44.953Z,86.80
2023-02-19T22:26:18.663Z,86.50
2023-02-19T22:28:46.017Z,86.60
2023-02-19T22:31:12.904Z,86.50
2023-02-19T22:33:39.832Z,86.40
2023-02-19T22:36:22.318Z,86.50
2023-02-19T22:38:49.563Z,86.90
2023-02-19T22:41:17.132Z,86.90
2023-02-19T22:43:43.987Z,87.10
2023-02-19T22:46:15.044Z,87.20
2023-02-19T22:48:42.539Z,87.40
2023-02-19T22:51:13.046Z,88.10
2023-02-19T22:53:58.581Z,87.60
2023-02-19T22:56:26.656Z,88.00
2023-02-19T22:58:54.475Z,87.90
2023-02-19T23:01:21.406Z,88.00
2023-02-19T23:04:06.388Z,88.10
2023-02-19T23:06:34.144Z,88.50
2023-02-19T23:09:06.005Z,88.20
2023-02-19T23:11:35.415Z,88.40
2023-02-19T23:14:02.337Z,89.10
2023-02-19T23:16:29.392Z,88.60
2023-02-19T23:18:56.333Z,88.70
2023-02-19T23:21:23.355Z,88.80
2023-02-19T23:23:50.239Z,88.90
2023-02-19T23:26:17.170Z,88.90
2023-02-19T23:28:44.184Z,89.00
2023-02-19T23:31:11.390Z,89.10
2023-02-19T23:33:38.622Z,89.20
2023-02-19T23:36:05.950Z,89.30
2023-02-19T23:38:32.794Z,89.40
2023-02-19T23:40:59.823Z,89.40
2023-02-19T23:43:26.737Z,89.50
2023-02-19T23:45:53.704Z,89.60
2023-02-19T23:48:20.607Z,89.80
2023-02-19T23:50:47.454Z,89.80
2023-02-19T23:53:14.313Z,89.90
2023-02-19T23:55:41.329Z,89.90
2023-02-19T23:58:08.278Z,90.00
